createdAt,value
2019-02-18T00:13:01.509Z,1016.1
2019-02-18T00:28:01.605Z,1015.88
2019-02-18T00:33:01.526Z,1015.88
2019-02-18T00:38:01.596Z,1015.79
2019-02-18T00:43:01.452Z,1015.79
2019-02-18T00:48:01.485Z,1015.83
2019-02-18T01:03:01.239Z,1015.83
2019-02-18T01:18:01.312Z,1015.75
2019-02-18T01:28:01.507Z,1015.7
2019-02-18T01:33:01.566Z,1015.7
2019-02-18T01:43:01.668Z,1015.76
2019-02-18T01:48:01.535Z,1015.7
2019-02-18T01:53:01.485Z,1015.7
2019-02-18T01:58:01.591Z,1015.65
2019-02-18T02:03:01.490Z,1015.65
2019-02-18T02:08:01.562Z,1015.61
2019-02-18T02:13:01.475Z,1015.61
2019-02-18T02:18:01.481Z,1015.47
2019-02-18T02:23:01.471Z,1015.47
2019-02-18T02:28:01.474Z,1015.55
2019-02-18T02:38:08.520Z,1015.47
2019-02-18T02:48:01.572Z,1015.44
2019-02-18T02:53:01.524Z,1015.44
2019-02-18T02:58:01.519Z,1015.39
2019-02-18T03:13:01.610Z,1015.24
2019-02-18T03:18:01.518Z,1015.2
2019-02-18T03:28:01.634Z,1015.2
2019-02-18T03:33:01.478Z,1015.2
2019-02-18T03:48:01.514Z,1015.27
2019-02-18T03:53:01.453Z,1015.27
2019-02-18T04:03:01.523Z,1015.12
2019-02-18T04:18:01.538Z,1015.08
2019-02-18T04:28:01.513Z,1015.18
2019-02-18T04:38:01.554Z,1015.06
2019-02-18T04:53:01.579Z,1014.91
2019-02-18T04:58:01.600Z,1014.82
2019-02-18T05:03:01.642Z,1014.82
2019-02-18T05:08:01.650Z,1014.82
2019-02-18T05:13:01.597Z,1014.82
2019-02-18T05:18:01.533Z,1014.79
2019-02-18T05:33:01.780Z,1014.87
2019-02-18T05:48:01.482Z,1014.87
2019-02-18T06:03:01.470Z,1014.82
2019-02-18T06:08:02.386Z,1014.87
2019-02-18T06:23:01.458Z,1014.94
2019-02-18T06:28:01.437Z,1015.09
2019-02-18T06:43:01.562Z,1015.14
2019-02-18T06:48:01.600Z,1015.24
2019-02-18T07:03:01.562Z,1015.3
2019-02-18T07:19:01.471Z,1015.33
2019-02-18T07:24:01.455Z,1015.33
2019-02-18T07:29:01.481Z,1015.32
2019-02-18T07:34:01.533Z,1015.32
2019-02-18T07:39:01.581Z,1015.37
2019-02-18T07:44:01.463Z,1015.37
2019-02-18T07:49:03.705Z,1015.48
2019-02-18T07:54:01.473Z,1015.48
2019-02-18T07:59:01.436Z,1015.39
2019-02-18T08:04:01.480Z,1015.39
2019-02-18T08:10:12.849Z,1015.47
2019-02-18T08:15:01.526Z,1015.46
2019-02-18T08:20:01.489Z,1015.46
2019-02-18T08:25:01.472Z,1015.39
2019-02-18T08:30:01.561Z,1015.39
2019-02-18T08:35:01.686Z,1015.31
2019-02-18T08:40:01.487Z,1015.31
2019-02-18T08:45:01.849Z,1015.23
2019-02-18T08:50:02.439Z,1015.23
2019-02-18T08:55:01.462Z,1015.16
2019-02-18T09:00:01.659Z,1015.16
2019-02-18T09:05:01.535Z,1015.25
2019-02-18T09:10:01.547Z,1015.25
2019-02-18T09:15:01.840Z,1015.15
2019-02-18T09:20:01.477Z,1015.15
2019-02-18T09:25:01.694Z,1015.12
2019-02-18T09:30:01.726Z,1015.12
2019-02-18T09:35:02.548Z,1015.17
2019-02-18T09:40:01.508Z,1015.17
2019-02-18T09:45:01.754Z,1015.02
2019-02-18T09:50:01.533Z,1015.02
2019-02-18T09:55:01.671Z,1014.95
2019-02-18T10:00:02.079Z,1014.95
2019-02-18T10:05:01.611Z,1014.87
2019-02-18T10:10:01.548Z,1014.87
2019-02-18T10:15:01.761Z,1014.72
2019-02-18T10:20:01.600Z,1014.72
2019-02-18T10:25:01.552Z,1014.61
2019-02-18T10:30:01.643Z,1014.61
2019-02-18T10:35:01.643Z,1014.5
2019-02-18T10:40:01.484Z,1014.5
2019-02-18T10:45:01.738Z,1014.49
2019-02-18T10:55:01.610Z,1014.26
2019-02-18T11:00:01.731Z,1014.26
2019-02-18T11:05:01.561Z,1014.12
2019-02-18T11:10:01.457Z,1014.12
2019-02-18T11:15:01.827Z,1014.17
2019-02-18T11:25:01.530Z,1013.99
2019-02-18T11:30:01.625Z,1013.99
2019-02-18T11:35:01.672Z,1013.81
2019-02-18T11:40:01.531Z,1013.81
2019-02-18T11:45:02.152Z,1013.7
2019-02-18T11:55:01.623Z,1013.65
2019-02-18T12:01:01.771Z,1013.65
2019-02-18T12:06:01.618Z,1013.68
2019-02-18T12:11:01.541Z,1013.68
2019-02-18T12:16:01.899Z,1013.65
2019-02-18T12:21:01.459Z,1013.65
2019-02-18T12:26:01.661Z,1013.48
2019-02-18T12:31:01.791Z,1013.48
2019-02-18T12:36:01.828Z,1013.38
2019-02-18T12:41:01.534Z,1013.38
2019-02-18T12:46:01.498Z,1013.37
2019-02-18T12:51:03.661Z,1013.37
2019-02-18T12:56:01.740Z,1013.19
2019-02-18T13:01:01.535Z,1013.19
2019-02-18T13:06:01.694Z,1012.94
2019-02-18T13:16:01.716Z,1012.85
2019-02-18T13:21:01.595Z,1012.85
2019-02-18T13:26:01.551Z,1012.72
2019-02-18T13:36:01.557Z,1012.58
2019-02-18T13:51:01.541Z,1012.54
2019-02-18T14:01:01.358Z,1012.44
2019-02-18T14:11:01.695Z,1012.46
2019-02-18T14:21:01.494Z,1012.51
2019-02-18T14:31:01.340Z,1012.32
2019-02-18T14:46:01.327Z,1012.13
2019-02-18T15:01:01.569Z,1012.16
2019-02-18T15:06:01.712Z,1012.06
2019-02-18T15:16:01.692Z,1011.93
2019-02-18T15:21:01.702Z,1011.93
2019-02-18T15:26:01.695Z,1011.95
2019-02-18T15:31:01.627Z,1011.95
2019-02-18T15:36:01.762Z,1011.86
2019-02-18T15:41:01.621Z,1011.86
2019-02-18T15:46:01.615Z,1011.82
2019-02-18T15:51:01.686Z,1011.82
2019-02-18T15:56:01.597Z,1011.77
2019-02-18T16:01:03.139Z,1011.77
2019-02-18T16:06:02.348Z,1011.7
2019-02-18T16:11:01.629Z,1011.7
2019-02-18T16:16:02.498Z,1011.61
2019-02-18T16:21:02.199Z,1011.61
2019-02-18T16:26:01.592Z,1011.55
2019-02-18T16:31:01.808Z,1011.55
2019-02-18T16:36:01.689Z,1011.4
2019-02-18T16:41:02.292Z,1011.4
2019-02-18T16:46:02.256Z,1011.38
2019-02-18T16:51:01.628Z,1011.38
2019-02-18T16:56:01.668Z,1011.38
2019-02-18T17:01:01.632Z,1011.38
2019-02-18T17:06:01.650Z,1011.33
2019-02-18T17:11:01.618Z,1011.33
2019-02-18T17:16:01.803Z,1011.32
2019-02-18T17:26:01.671Z,1011.23
2019-02-18T17:36:02.725Z,1011.12
2019-02-18T17:46:02.268Z,1011.04
2019-02-18T17:51:01.522Z,1011.04
2019-02-18T18:01:01.775Z,1010.93
2019-02-18T18:06:01.625Z,1010.85
2019-02-18T18:16:01.533Z,1010.81
2019-02-18T18:21:01.619Z,1010.81
2019-02-18T18:26:01.596Z,1010.78
2019-02-18T18:31:01.637Z,1010.78
2019-02-18T18:36:01.654Z,1010.76
2019-02-18T18:41:01.469Z,1010.76
2019-02-18T18:46:01.688Z,1010.72
2019-02-18T18:51:01.570Z,1010.72
2019-02-18T18:56:01.869Z,1010.68
2019-02-18T19:01:01.533Z,1010.68
2019-02-18T19:16:01.320Z,1010.62
2019-02-18T19:21:01.452Z,1010.62
2019-02-18T19:26:01.790Z,1010.56
2019-02-18T19:31:01.481Z,1010.56
2019-02-18T19:41:01.561Z,1010.66
2019-02-18T19:46:01.614Z,1010.67
2019-02-18T19:56:01.591Z,1010.57
2019-02-18T20:06:01.536Z,1010.57
2019-02-18T20:11:01.472Z,1010.57
2019-02-18T20:16:01.463Z,1010.42
2019-02-18T20:26:01.536Z,1010.4
2019-02-18T20:41:01.578Z,1010.29
2019-02-18T20:46:01.745Z,1010.31
2019-02-18T20:51:01.536Z,1010.31
2019-02-18T20:56:01.605Z,1010.27
2019-02-18T21:01:01.532Z,1010.27
2019-02-18T21:06:01.521Z,1010.31
2019-02-18T21:16:01.315Z,1010.09
2019-02-18T21:31:01.315Z,1010.06
2019-02-18T21:41:02.018Z,1009.99
2019-02-18T21:51:01.484Z,1009.78
2019-02-18T22:06:01.479Z,1009.72
2019-02-18T22:21:01.364Z,1009.66
2019-02-18T22:26:02.746Z,1009.46
2019-02-18T22:31:01.460Z,1009.46
2019-02-18T22:36:01.511Z,1009.42
2019-02-18T22:41:01.581Z,1009.42
2019-02-18T22:46:01.471Z,1009.42
2019-02-18T23:01:01.324Z,1009.36
2019-02-18T23:17:01.397Z,1009.14
2019-02-18T23:22:01.540Z,1009.14
2019-02-18T23:37:01.308Z,1008.87
2019-02-18T23:42:01.544Z,1008.87
2019-02-18T23:57:01.599Z,1008.71
